Airfield :
LOGIN :

Register | Disclaimer

   EN    FR    IT 

 










Legend :    VFR   Marginal VFR   IFR   Intensive IFR   Very Intensive IFR
Visi :
Ceiling :
>= 8 km
>= 3000ft
5 to 8 km
1000 to 3000 ft
1500m to 5 km
500 to 1000 ft
800 to 1500m
200 to 500 ft
< 800m
< 200 ft
Symbols :   Thunderstorms  Fog  Heavy snow  Heavy precipitations  Wind > 20 kt
SIGMETs :     Misc.  Thunderstorms  Icing  Turbulence  Mountain Waves  Volcanic Ashes






- Airport Elevation : 11 ft
- IATA code : PVK


LGPZ - Aktion Lefkada Preveza

CURRENT METAR :
  • 130950Z 15008KT 8000 RA FEW015 19/14 Q1008 RMK FEW020 BKN080 OVC180 BLU

EXPIRED METARs :
  • 130920Z 14009KT 9999 FEW015 20/14 Q1009
  • 130850Z 15009KT 9999 FEW015 20/14 Q1008 RMK FEW020 SCT080 OVC180 BLU
  • 130820Z 00000KT 9999 FEW015 19/14 Q1008
  • 130750Z 00000KT 9999 FEW014TCU SCT020 17/15 Q1008
  • 130720Z 07004KT 9999 FEW014TCU SCT020 16/15 Q1009 RERA

TAF TAF LGPZ
Valid from the 13 at 06:00 until the 14 at 06:00 UTC


130500Z 1306/1406 18015G25KT 9000 FEW010 SCT014TCU BKN025
TEMPO 1306/1318 4000 RA
PROB40
TEMPO 1306/1318 2000 TSRA SCT010 FEW015CB BKN020 OVC070
BECMG 1314/1316 VRB05KT
PROB30 1401/1405 3000 BR SCT010



MET'MAP, your aeronautical weather chart ! - Copyright ORBIFLY December 2007 - Disclaimer

ORBIFLY MET'MAP TEAM :

Programming & Development : Alexandra Zaïnal
Concept & Development : Baudouin d'Aumeries
Co-Development & Prog : Marc-Olivier Méhu
Technical & hardware support : Manuel Goepfert

Contact : metmap@orbifly.com




SOURCES & CREDITS :

   NOAA